This is the latest recevied weather packets stored in our database for station/object N7NKE. If no packets are shown the sender has not sent any weather packets the latest 10 day(s).
| Time | Temp. | Humidity | Pressure | Rain* | Wind** | Luminosity | Snow |
|---|---|---|---|---|---|---|---|
| 1777310704 | 10.56° C | 80% | 1018.5 hPa | 0 mm | - | 174 W/m² | - |
| 1777309503 | 10° C | 81% | 1018.4 hPa | 0 mm | - | 183 W/m² | - |
| 1777308604 | 9.44° C | 82% | 1018.3 hPa | 0 mm | - | 190 W/m² | - |
| 1777302904 | 7.22° C | 88% | 1017.7 hPa | 0 mm | - | 90 W/m² | - |
| 1777301105 | 6.11° C | 90% | 1017.3 hPa | 0 mm | - | 79 W/m² | - |
| 1777299005 | 5.56° C | 91% | 1017.2 hPa | 0 mm | - | 39 W/m² | - |
| 1777295406 | 4.44° C | 90% | 1016.7 hPa | 0 mm | - | 0 W/m² | - |
| 1777293606 | 4.44° C | 90% | 1016.3 hPa | 0 mm | - | 0 W/m² | - |
| 1777292105 | 4.44° C | 90% | 1016.3 hPa | 0 mm | - | 0 W/m² | - |
| 1777290306 | 5° C | 90% | 1016.3 hPa | 0 mm | - | 0 W/m² | - |
| 1777288205 | 5° C | 89% | 1015.9 hPa | 0 mm | - | 0 W/m² | - |
| 1777287906 | 5° C | 89% | 1015.9 hPa | 0 mm | - | 0 W/m² | - |
| 1777287606 | 5.56° C | 89% | 1015.7 hPa | 0 mm | - | 0 W/m² | - |
| 1777285805 | 5.56° C | 89% | 1015.4 hPa | 0 mm | - | 0 W/m² | - |
| 1777284305 | 5.56° C | 88% | 1015.2 hPa | 0 mm | - | 0 W/m² | - |
| 1777281305 | 6.67° C | 86% | 1014.9 hPa | 0 mm | - | 0 W/m² | - |
| 1777278605 | 7.22° C | 84% | 1015 hPa | 0 mm | - | 0 W/m² | - |
| 1777278305 | 7.22° C | 84% | 1014.9 hPa | 0 mm | - | 0 W/m² | - |
| 1777278006 | 7.78° C | 84% | 1014.9 hPa | 0 mm | - | 0 W/m² | - |
| 1777276205 | 7.78° C | 83% | 1014.8 hPa | 0 mm | - | 0 W/m² | - |
| 1777274405 | 7.78° C | 82% | 1014.4 hPa | 0 mm | - | 0 W/m² | - |
| 1777271105 | 9.44° C | 78% | 1013.6 hPa | 0 mm | - | 0 W/m² | - |
| 1777270805 | 9.44° C | 78% | 1013.6 hPa | 0 mm | - | 0 W/m² | - |
| 1777268405 | 10.56° C | 73% | 1013.2 hPa | 0 mm | - | 0 W/m² | - |
| 1777266606 | 12.22° C | 65% | 1012.8 hPa | 0 mm | - | 0 W/m² | - |
* Rain latest hour (hover to see other rain measurements)
** Current wind speed in m/s (hover to see current wind gust speed)